createdAt,value
2017-01-01T00:00:01.092Z,0
2017-01-01T00:01:01.092Z,0
2017-01-01T00:02:00.680Z,0
2017-01-01T00:03:01.496Z,0
2017-01-01T00:04:00.664Z,0
2017-01-01T00:05:01.084Z,0
2017-01-01T00:06:00.660Z,0
2017-01-01T00:07:01.489Z,0
2017-01-01T00:08:01.476Z,0
2017-01-01T00:09:01.052Z,0
2017-01-01T00:10:01.048Z,0
2017-01-01T00:11:01.457Z,0
2017-01-01T00:12:01.448Z,0
2017-01-01T00:13:00.620Z,0
2017-01-01T00:14:01.024Z,0
2017-01-01T00:15:00.208Z,0
2017-01-01T00:16:01.432Z,0
2017-01-01T00:17:01.036Z,0
2017-01-01T00:18:01.013Z,0
2017-01-01T00:19:00.593Z,0
2017-01-01T00:20:01.000Z,0
2017-01-01T00:21:01.416Z,0
2017-01-01T00:22:00.592Z,0
2017-01-01T00:23:00.581Z,0
2017-01-01T00:24:00.972Z,0
2017-01-01T00:25:00.972Z,0
2017-01-01T00:26:00.972Z,0
2017-01-01T00:27:02.792Z,0
2017-01-01T00:28:00.956Z,0
2017-01-01T00:29:00.956Z,0
2017-01-01T00:30:00.544Z,0
2017-01-01T00:31:00.948Z,0
2017-01-01T00:32:00.948Z,0
2017-01-01T00:33:01.361Z,0
2017-01-01T00:34:00.936Z,0
2017-01-01T00:35:00.928Z,0
2017-01-01T00:36:00.516Z,0
2017-01-01T00:37:01.112Z,0
2017-01-01T00:38:01.320Z,0
2017-01-01T00:39:01.324Z,0
2017-01-01T00:40:00.096Z,0
2017-01-01T00:41:00.500Z,0
2017-01-01T00:42:00.892Z,0
2017-01-01T00:43:01.304Z,0
2017-01-01T00:44:00.480Z,0
2017-01-01T00:45:00.880Z,0
2017-01-01T00:46:01.296Z,0
2017-01-01T00:47:00.864Z,0
2017-01-01T00:48:00.868Z,0
2017-01-01T00:49:00.456Z,0
2017-01-01T00:50:00.452Z,0
2017-01-01T00:51:00.444Z,0
2017-01-01T00:52:01.264Z,0
2017-01-01T00:53:00.844Z,0
2017-01-01T00:54:00.844Z,0
2017-01-01T00:55:00.832Z,0
2017-01-01T00:56:00.417Z,0
2017-01-01T00:57:00.836Z,0
2017-01-01T00:58:01.236Z,0
2017-01-01T00:59:00.816Z,0
2017-01-01T01:00:01.224Z,0
2017-01-01T01:01:00.808Z,0
2017-01-01T01:02:01.212Z,0
2017-01-01T01:03:00.800Z,0
2017-01-01T01:04:00.788Z,0
2017-01-01T01:05:01.196Z,0
2017-01-01T01:06:00.368Z,0
2017-01-01T01:07:00.788Z,0
2017-01-01T01:08:00.773Z,0
2017-01-01T01:09:01.180Z,0
2017-01-01T01:10:00.360Z,0
2017-01-01T01:11:01.169Z,0
2017-01-01T01:12:00.352Z,0
2017-01-01T01:13:00.752Z,0
2017-01-01T01:14:01.160Z,0
2017-01-01T01:15:00.328Z,0
2017-01-01T01:16:00.732Z,0
2017-01-01T01:17:01.400Z,0
2017-01-01T01:18:01.137Z,0
2017-01-01T01:19:00.728Z,0
2017-01-01T01:20:00.309Z,0
2017-01-01T01:21:00.720Z,0
2017-01-01T01:22:00.709Z,0
2017-01-01T01:23:00.300Z,0
2017-01-01T01:24:00.697Z,0
2017-01-01T01:25:01.118Z,0
2017-01-01T01:26:00.721Z,0
2017-01-01T01:27:01.092Z,0
2017-01-01T01:27:59.857Z,0
2017-01-01T01:29:00.680Z,0
2017-01-01T01:29:59.849Z,0
2017-01-01T01:31:00.257Z,0
2017-01-01T01:32:00.669Z,0
2017-01-01T01:33:01.069Z,0
2017-01-01T01:34:00.649Z,0
2017-01-01T01:35:01.097Z,0
2017-01-01T01:36:00.641Z,0
2017-01-01T01:37:01.049Z,0
2017-01-01T01:38:00.635Z,0
2017-01-01T01:39:00.633Z,0
2017-01-01T01:40:00.649Z,0
2017-01-01T01:41:01.029Z,0
2017-01-01T01:42:01.025Z,0
2017-01-01T01:43:00.617Z,0
2017-01-01T01:44:00.601Z,0
2017-01-01T01:45:01.001Z,0
2017-01-01T01:46:01.001Z,0
2017-01-01T01:47:01.001Z,0
2017-01-01T01:48:00.998Z,0
2017-01-01T01:49:00.585Z,0
2017-01-01T01:50:00.181Z,0
2017-01-01T01:51:00.569Z,0
2017-01-01T01:52:00.981Z,0
2017-01-01T01:53:00.569Z,0
2017-01-01T01:54:00.966Z,0
2017-01-01T01:55:00.545Z,0
2017-01-01T01:56:00.959Z,0
2017-01-01T01:57:00.961Z,0
2017-01-01T01:58:00.130Z,0
2017-01-01T01:59:00.133Z,0
2017-01-01T02:00:00.949Z,0
2017-01-01T02:01:00.126Z,0
2017-01-01T02:02:00.526Z,0
2017-01-01T02:03:00.518Z,0
2017-01-01T02:04:00.510Z,0
2017-01-01T02:05:00.921Z,0
2017-01-01T02:06:00.097Z,0
2017-01-01T02:07:00.502Z,0
2017-01-01T02:08:00.926Z,0
2017-01-01T02:09:00.486Z,0
2017-01-01T02:10:00.482Z,0
2017-01-01T02:11:00.482Z,0
2017-01-01T02:12:00.482Z,0
2017-01-01T02:13:00.882Z,0
2017-01-01T02:14:00.458Z,0
2017-01-01T02:15:00.454Z,0
2017-01-01T02:16:00.458Z,0
2017-01-01T02:17:00.894Z,0
2017-01-01T02:17:59.626Z,0
2017-01-01T02:19:00.438Z,0
2017-01-01T02:20:00.434Z,0
2017-01-01T02:21:00.434Z,0
2017-01-01T02:22:00.451Z,0
2017-01-01T02:23:00.830Z,0
2017-01-01T02:24:00.414Z,0
2017-01-01T02:25:00.414Z,0
2017-01-01T02:26:00.822Z,0
2017-01-01T02:26:59.994Z,0
2017-01-01T02:28:00.386Z,0
2017-01-01T02:29:00.402Z,0
2017-01-01T02:30:00.802Z,0
2017-01-01T02:30:59.975Z,0
2017-01-01T02:32:00.787Z,0
2017-01-01T02:33:00.402Z,0
2017-01-01T02:34:00.374Z,0
2017-01-01T02:35:00.786Z,0
2017-01-01T02:36:00.358Z,0
2017-01-01T02:37:00.359Z,0
2017-01-01T02:37:59.942Z,0
2017-01-01T02:39:00.350Z,0
2017-01-01T02:40:00.755Z,0
2017-01-01T02:41:00.342Z,0
2017-01-01T02:42:00.331Z,0
2017-01-01T02:43:00.327Z,0
2017-01-01T02:43:59.915Z,0
2017-01-01T02:45:00.319Z,0
2017-01-01T02:46:00.307Z,0
2017-01-01T02:47:00.307Z,0
2017-01-01T02:48:00.343Z,0
2017-01-01T02:49:00.295Z,0
2017-01-01T02:50:00.711Z,0
2017-01-01T02:51:00.702Z,0
2017-01-01T02:52:00.286Z,0
2017-01-01T02:53:00.710Z,0
2017-01-01T02:54:00.687Z,0
2017-01-01T02:55:00.271Z,0
2017-01-01T02:56:00.683Z,0
2017-01-01T02:56:59.851Z,0
2017-01-01T02:58:00.267Z,0
2017-01-01T02:59:00.251Z,0
2017-01-01T03:00:00.251Z,0
2017-01-01T03:01:00.651Z,0
2017-01-01T03:02:00.647Z,0
2017-01-01T03:02:59.818Z,0
2017-01-01T03:04:00.227Z,0
2017-01-01T03:04:59.815Z,0
2017-01-01T03:06:00.635Z,0
2017-01-01T03:07:00.219Z,0
2017-01-01T03:08:00.207Z,0
2017-01-01T03:09:00.623Z,0
2017-01-01T03:10:00.207Z,0
2017-01-01T03:11:00.607Z,0
2017-01-01T03:12:00.199Z,0
2017-01-01T03:13:00.187Z,0
2017-01-01T03:14:00.184Z,0
2017-01-01T03:15:00.587Z,0
2017-01-01T03:16:00.171Z,0
2017-01-01T03:17:00.579Z,0
2017-01-01T03:18:00.159Z,0
2017-01-01T03:19:00.160Z,0
2017-01-01T03:19:59.743Z,0
2017-01-01T03:21:00.157Z,0
2017-01-01T03:22:00.559Z,0
2017-01-01T03:23:00.548Z,0
2017-01-01T03:24:00.544Z,0
2017-01-01T03:24:59.723Z,0
2017-01-01T03:25:59.715Z,0
2017-01-01T03:27:00.528Z,0
2017-01-01T03:28:00.116Z,0
2017-01-01T03:28:59.704Z,0
2017-01-01T03:30:00.112Z,0
2017-01-01T03:31:00.100Z,0
2017-01-01T03:32:00.504Z,0
2017-01-01T03:33:00.092Z,0
2017-01-01T03:34:00.528Z,0
2017-01-01T03:35:00.087Z,0
2017-01-01T03:35:59.672Z,0
2017-01-01T03:37:00.075Z,0
2017-01-01T03:38:00.475Z,0
2017-01-01T03:39:00.480Z,0
2017-01-01T03:40:00.052Z,0
2017-01-01T03:41:00.495Z,0
2017-01-01T03:42:00.464Z,0
2017-01-01T03:43:00.043Z,0
2017-01-01T03:44:00.035Z,0
2017-01-01T03:45:00.067Z,0
2017-01-01T03:46:00.035Z,0
2017-01-01T03:47:00.024Z,0
2017-01-01T03:48:00.023Z,0
2017-01-01T03:49:00.020Z,0
2017-01-01T03:50:00.040Z,0
2017-01-01T03:51:00.013Z,0
2017-01-01T03:51:59.176Z,0
2017-01-01T03:52:59.995Z,0
2017-01-01T03:53:59.992Z,0
2017-01-01T03:55:00.400Z,0
2017-01-01T03:55:59.983Z,0
2017-01-01T03:57:00.387Z,0
2017-01-01T03:57:59.560Z,0
2017-01-01T03:59:00.383Z,0
2017-01-01T04:00:00.383Z,0
2017-01-01T04:00:59.959Z,0
2017-01-01T04:02:00.363Z,0
2017-01-01T04:02:59.952Z,0
2017-01-01T04:03:59.947Z,0
2017-01-01T04:04:59.947Z,0
2017-01-01T04:06:00.355Z,0
2017-01-01T04:06:59.519Z,0
2017-01-01T04:07:59.515Z,0
2017-01-01T04:09:00.327Z,0
2017-01-01T04:10:00.331Z,0
2017-01-01T04:11:00.315Z,0
2017-01-01T04:11:59.900Z,0
2017-01-01T04:12:59.903Z,0
2017-01-01T04:13:59.487Z,0
2017-01-01T04:14:59.907Z,0
2017-01-01T04:16:00.301Z,0
2017-01-01T04:16:59.883Z,0
2017-01-01T04:18:00.287Z,0
2017-01-01T04:18:59.471Z,0
2017-01-01T04:19:59.867Z,0
2017-01-01T04:20:59.875Z,0
2017-01-01T04:22:00.271Z,0
2017-01-01T04:23:00.263Z,0
2017-01-01T04:23:59.839Z,0
2017-01-01T04:25:00.239Z,0
2017-01-01T04:25:59.839Z,0
2017-01-01T04:26:59.839Z,0
2017-01-01T04:27:59.419Z,0
2017-01-01T04:28:59.411Z,0
2017-01-01T04:30:00.227Z,0
2017-01-01T04:30:59.403Z,0
2017-01-01T04:32:00.218Z,0
2017-01-01T04:32:59.807Z,0
2017-01-01T04:33:59.799Z,0
2017-01-01T04:34:59.803Z,0
2017-01-01T04:36:00.202Z,0
2017-01-01T04:37:00.195Z,0
2017-01-01T04:38:00.190Z,0
2017-01-01T04:38:59.363Z,0
2017-01-01T04:40:00.183Z,0
2017-01-01T04:41:00.191Z,0
2017-01-01T04:41:59.764Z,0
2017-01-01T04:42:59.764Z,0
2017-01-01T04:43:59.752Z,0
2017-01-01T04:44:59.772Z,0
2017-01-01T04:45:58.924Z,0
2017-01-01T04:46:59.746Z,0
2017-01-01T04:47:59.737Z,0
2017-01-01T04:48:59.745Z,0
2017-01-01T04:49:59.733Z,0
2017-01-01T04:51:00.137Z,0
2017-01-01T04:51:58.901Z,0
2017-01-01T04:52:59.718Z,0
2017-01-01T04:53:59.302Z,0
2017-01-01T04:54:59.290Z,0
2017-01-01T04:55:59.286Z,0
2017-01-01T04:56:59.694Z,0
2017-01-01T04:57:59.702Z,0
2017-01-01T04:58:59.682Z,0
2017-01-01T05:00:00.088Z,0
2017-01-01T05:01:00.091Z,0
2017-01-01T05:01:59.671Z,0
2017-01-01T05:02:59.251Z,0
2017-01-01T05:03:59.256Z,0
2017-01-01T05:04:58.831Z,0
2017-01-01T05:06:00.060Z,0
2017-01-01T05:06:59.656Z,0
2017-01-01T05:07:59.648Z,0
2017-01-01T05:09:00.156Z,0
2017-01-01T05:09:59.229Z,0
2017-01-01T05:10:59.640Z,0
2017-01-01T05:12:00.040Z,0
2017-01-01T05:13:00.033Z,0
2017-01-01T05:13:59.209Z,0
2017-01-01T05:14:59.205Z,0
2017-01-01T05:15:59.201Z,0
2017-01-01T05:16:59.189Z,0
2017-01-01T05:17:59.609Z,0
2017-01-01T05:18:59.183Z,0
2017-01-01T05:19:59.998Z,0
2017-01-01T05:20:59.583Z,0
2017-01-01T05:21:59.579Z,0
2017-01-01T05:22:59.162Z,0
2017-01-01T05:23:59.566Z,0
2017-01-01T05:24:59.154Z,0
2017-01-01T05:25:59.567Z,0
2017-01-01T05:26:59.139Z,0
2017-01-01T05:27:59.959Z,0
2017-01-01T05:28:59.951Z,0
2017-01-01T05:29:59.135Z,0
2017-01-01T05:30:59.131Z,0
2017-01-01T05:31:59.939Z,0
2017-01-01T05:32:59.128Z,0
2017-01-01T05:33:59.116Z,0
2017-01-01T05:34:59.107Z,0
2017-01-01T05:35:59.512Z,0
2017-01-01T05:36:59.516Z,0
2017-01-01T05:37:59.908Z,0
2017-01-01T05:38:59.120Z,0
2017-01-01T05:39:59.908Z,0
2017-01-01T05:40:59.089Z,0
2017-01-01T05:41:59.517Z,0
2017-01-01T05:42:59.477Z,0
2017-01-01T05:43:59.061Z,0
2017-01-01T05:44:59.877Z,0
2017-01-01T05:45:59.877Z,0
2017-01-01T05:46:59.057Z,0
2017-01-01T05:47:59.046Z,0
2017-01-01T05:48:59.458Z,0
2017-01-01T05:49:59.454Z,0
2017-01-01T05:50:59.854Z,0
2017-01-01T05:51:59.034Z,0
2017-01-01T05:52:59.850Z,0
2017-01-01T05:53:59.018Z,0
2017-01-01T05:54:59.430Z,0
2017-01-01T05:55:59.831Z,0
2017-01-01T05:56:59.407Z,0
2017-01-01T05:57:59.414Z,0
2017-01-01T05:58:58.999Z,0
2017-01-01T05:59:59.395Z,0
2017-01-01T06:00:59.823Z,0
2017-01-01T06:01:58.983Z,0
2017-01-01T06:03:00.047Z,0
2017-01-01T06:03:59.375Z,0
2017-01-01T06:04:59.376Z,0
2017-01-01T06:05:59.787Z,0
2017-01-01T06:06:59.375Z,0
2017-01-01T06:07:58.947Z,0
2017-01-01T06:08:59.355Z,0
2017-01-01T06:09:59.352Z,0
2017-01-01T06:10:59.756Z,0
2017-01-01T06:11:59.756Z,0
2017-01-01T06:12:59.744Z,0
2017-01-01T06:13:59.329Z,0
2017-01-01T06:14:58.923Z,0
2017-01-01T06:15:59.325Z,0
2017-01-01T06:16:59.321Z,0
2017-01-01T06:17:59.313Z,0
2017-01-01T06:18:58.901Z,0
2017-01-01T06:19:59.309Z,0
2017-01-01T06:20:58.881Z,0
2017-01-01T06:21:59.305Z,0
2017-01-01T06:22:59.313Z,0
2017-01-01T06:23:58.869Z,0
2017-01-01T06:24:59.282Z,0
2017-01-01T06:25:59.278Z,0
2017-01-01T06:26:58.861Z,0
2017-01-01T06:27:59.270Z,0
2017-01-01T06:28:58.858Z,0
2017-01-01T06:29:59.674Z,0
2017-01-01T06:30:59.258Z,0
2017-01-01T06:31:58.830Z,0
2017-01-01T06:32:59.250Z,0
2017-01-01T06:33:58.823Z,0
2017-01-01T06:34:58.819Z,0
2017-01-01T06:35:58.818Z,0
2017-01-01T06:36:59.223Z,0
2017-01-01T06:37:59.215Z,0
2017-01-01T06:38:59.627Z,0
2017-01-01T06:39:59.215Z,0
2017-01-01T06:40:59.203Z,0
2017-01-01T06:41:59.199Z,0
2017-01-01T06:42:59.203Z,0
2017-01-01T06:43:59.608Z,0
2017-01-01T06:44:59.192Z,0
2017-01-01T06:45:59.591Z,0
2017-01-01T06:46:58.772Z,4
2017-01-01T06:47:58.756Z,4
2017-01-01T06:48:59.176Z,0
2017-01-01T06:49:59.160Z,4
2017-01-01T06:50:59.160Z,4
2017-01-01T06:51:59.153Z,8
2017-01-01T06:52:58.753Z,4
2017-01-01T06:53:59.141Z,8
2017-01-01T06:54:59.540Z,4
2017-01-01T06:55:59.136Z,8
2017-01-01T06:56:59.133Z,8
2017-01-01T06:57:59.125Z,12
2017-01-01T06:58:59.537Z,12
2017-01-01T06:59:59.113Z,16
2017-01-01T07:00:59.109Z,16
2017-01-01T07:01:59.517Z,20
2017-01-01T07:02:59.098Z,24
2017-01-01T07:03:59.093Z,24
2017-01-01T07:04:58.678Z,24
2017-01-01T07:05:58.673Z,28
2017-01-01T07:06:59.474Z,32
2017-01-01T07:07:59.482Z,32
2017-01-01T07:08:59.074Z,32
2017-01-01T07:09:59.478Z,36
2017-01-01T07:10:59.058Z,40
2017-01-01T07:11:59.058Z,44
2017-01-01T07:12:59.050Z,52
2017-01-01T07:13:59.051Z,52
2017-01-01T07:14:59.043Z,56
2017-01-01T07:15:58.627Z,60
2017-01-01T07:16:59.035Z,64
2017-01-01T07:17:59.442Z,68
2017-01-01T07:18:59.027Z,72
2017-01-01T07:19:58.604Z,72
2017-01-01T07:20:59.011Z,80
2017-01-01T07:21:59.011Z,84
2017-01-01T07:22:59.002Z,92
2017-01-01T07:23:59.000Z,116
2017-01-01T07:24:58.988Z,120
2017-01-01T07:25:58.988Z,112
2017-01-01T07:26:58.988Z,120
2017-01-01T07:27:58.980Z,128
2017-01-01T07:28:58.972Z,136
2017-01-01T07:29:58.556Z,136
2017-01-01T07:30:58.960Z,140
2017-01-01T07:31:58.552Z,148
2017-01-01T07:32:59.372Z,152
2017-01-01T07:33:59.357Z,156
2017-01-01T07:34:59.380Z,168
2017-01-01T07:35:59.352Z,176
2017-01-01T07:36:58.932Z,184
2017-01-01T07:37:58.529Z,196
2017-01-01T07:38:59.341Z,200
2017-01-01T07:39:58.929Z,208
2017-01-01T07:40:59.337Z,212
2017-01-01T07:41:58.905Z,220
2017-01-01T07:42:58.905Z,224
2017-01-01T07:43:58.905Z,228
2017-01-01T07:44:59.310Z,236
2017-01-01T07:45:59.310Z,240
2017-01-01T07:46:58.474Z,248
2017-01-01T07:47:59.294Z,260
2017-01-01T07:48:58.870Z,276
2017-01-01T07:49:59.286Z,292
2017-01-01T07:50:58.486Z,304
2017-01-01T07:51:58.870Z,320
2017-01-01T07:52:58.454Z,328
2017-01-01T07:53:58.862Z,344
2017-01-01T07:54:58.850Z,356
2017-01-01T07:55:58.851Z,368
2017-01-01T07:56:58.426Z,372
2017-01-01T07:57:58.839Z,372
2017-01-01T07:58:58.423Z,372
2017-01-01T07:59:58.843Z,372
2017-01-01T08:00:58.831Z,384
2017-01-01T08:01:59.259Z,400
2017-01-01T08:02:58.811Z,412
2017-01-01T08:03:59.227Z,412
2017-01-01T08:04:58.800Z,416
2017-01-01T08:05:58.796Z,416
2017-01-01T08:06:59.204Z,412
2017-01-01T08:07:58.380Z,424
2017-01-01T08:08:58.372Z,432
2017-01-01T08:09:58.780Z,444
2017-01-01T08:10:57.947Z,444
2017-01-01T08:11:59.183Z,448
2017-01-01T08:12:58.766Z,452
2017-01-01T08:13:58.754Z,460
2017-01-01T08:14:58.758Z,452
2017-01-01T08:15:58.333Z,452
2017-01-01T08:16:59.157Z,468
2017-01-01T08:17:59.152Z,472
2017-01-01T08:18:59.144Z,488
2017-01-01T08:19:58.728Z,496
2017-01-01T08:20:59.136Z,500
2017-01-01T08:21:58.307Z,516
2017-01-01T08:22:58.710Z,520
2017-01-01T08:23:58.302Z,516
2017-01-01T08:24:58.702Z,516
2017-01-01T08:25:58.694Z,524
2017-01-01T08:26:58.690Z,524
2017-01-01T08:27:58.741Z,532
2017-01-01T08:28:58.681Z,536
2017-01-01T08:29:58.677Z,556
2017-01-01T08:30:59.081Z,576
2017-01-01T08:31:59.076Z,596
2017-01-01T08:32:59.080Z,612
2017-01-01T08:33:58.659Z,620
2017-01-01T08:34:59.067Z,624
2017-01-01T08:35:58.643Z,624
2017-01-01T08:36:59.047Z,628
2017-01-01T08:37:59.042Z,628
2017-01-01T08:38:58.630Z,644
2017-01-01T08:39:58.218Z,668
2017-01-01T08:40:58.618Z,692
2017-01-01T08:41:58.618Z,704
2017-01-01T08:42:59.122Z,728
2017-01-01T08:43:58.206Z,768
2017-01-01T08:44:58.618Z,800
2017-01-01T08:45:58.597Z,828
2017-01-01T08:46:58.593Z,840
2017-01-01T08:47:58.997Z,860
2017-01-01T08:48:59.001Z,872
2017-01-01T08:49:58.585Z,892
2017-01-01T08:50:58.577Z,924
2017-01-01T08:51:58.149Z,932
2017-01-01T08:52:58.973Z,912
2017-01-01T08:53:58.150Z,936
2017-01-01T08:54:58.553Z,932
2017-01-01T08:55:58.149Z,948
2017-01-01T08:56:58.953Z,952
2017-01-01T08:57:58.537Z,916
2017-01-01T08:58:58.121Z,932
2017-01-01T08:59:58.529Z,948
2017-01-01T09:00:58.521Z,980
2017-01-01T09:01:58.520Z,1020
2017-01-01T09:02:58.925Z,1056
2017-01-01T09:03:58.956Z,1060
2017-01-01T09:04:58.500Z,1080
2017-01-01T09:05:58.508Z,1124
2017-01-01T09:06:58.904Z,1132
2017-01-01T09:07:58.496Z,1140
2017-01-01T09:08:58.488Z,1132
2017-01-01T09:09:58.068Z,1164
2017-01-01T09:10:58.480Z,1212
2017-01-01T09:11:58.060Z,1284
2017-01-01T09:12:58.468Z,1256
2017-01-01T09:13:58.455Z,1228
2017-01-01T09:14:58.452Z,1172
2017-01-01T09:15:58.864Z,1128
2017-01-01T09:16:58.864Z,1144
2017-01-01T09:17:57.620Z,1192
2017-01-01T09:18:58.447Z,1212
2017-01-01T09:19:58.435Z,1212
2017-01-01T09:20:58.420Z,1192
2017-01-01T09:21:58.423Z,1176
2017-01-01T09:22:58.839Z,1208
2017-01-01T09:23:58.015Z,1264
2017-01-01T09:24:58.815Z,1348
2017-01-01T09:25:58.815Z,1464
2017-01-01T09:26:58.023Z,1380
2017-01-01T09:27:57.583Z,1352
2017-01-01T09:28:58.399Z,1340
2017-01-01T09:29:58.395Z,1324
2017-01-01T09:30:58.799Z,1308
2017-01-01T09:31:58.383Z,1284
2017-01-01T09:32:57.551Z,1260
2017-01-01T09:33:58.375Z,1216
2017-01-01T09:34:58.366Z,1208
2017-01-01T09:35:57.958Z,1196
2017-01-01T09:36:58.347Z,1204
2017-01-01T09:37:57.946Z,1248
2017-01-01T09:38:58.755Z,1280
2017-01-01T09:39:58.350Z,1312
2017-01-01T09:40:58.750Z,1332
2017-01-01T09:41:57.918Z,1332
2017-01-01T09:42:58.322Z,1304
2017-01-01T09:43:57.910Z,1280
2017-01-01T09:44:58.738Z,1248
2017-01-01T09:45:58.730Z,1232
2017-01-01T09:46:57.894Z,1256
2017-01-01T09:47:57.898Z,1272
2017-01-01T09:48:57.890Z,1308
2017-01-01T09:49:58.294Z,1340
2017-01-01T09:50:57.882Z,1360
2017-01-01T09:51:58.702Z,1320
2017-01-01T09:52:57.874Z,1300
2017-01-01T09:53:58.294Z,1284
2017-01-01T09:54:58.682Z,1328
2017-01-01T09:55:58.686Z,1348
2017-01-01T09:56:57.886Z,1312
2017-01-01T09:57:58.269Z,1320
2017-01-01T09:58:58.669Z,1316
2017-01-01T09:59:58.254Z,1336
2017-01-01T10:00:58.249Z,1324
2017-01-01T10:01:58.657Z,1364
2017-01-01T10:02:57.833Z,1376
2017-01-01T10:03:58.649Z,1392
2017-01-01T10:04:58.233Z,1440
2017-01-01T10:05:58.229Z,1424
2017-01-01T10:06:58.637Z,1376
2017-01-01T10:07:57.805Z,1392
2017-01-01T10:08:58.413Z,1472
2017-01-01T10:09:58.201Z,1536
2017-01-01T10:10:58.609Z,1568
2017-01-01T10:11:58.209Z,1668
2017-01-01T10:12:58.193Z,1644
2017-01-01T10:13:58.601Z,1792
2017-01-01T10:14:58.184Z,1860
2017-01-01T10:15:57.368Z,1856
2017-01-01T10:16:58.176Z,1760
2017-01-01T10:17:58.172Z,1748
2017-01-01T10:18:57.752Z,1736
2017-01-01T10:19:58.584Z,1680
2017-01-01T10:20:58.576Z,1744
2017-01-01T10:21:58.160Z,1900
2017-01-01T10:22:58.147Z,1944
2017-01-01T10:23:58.559Z,1916
2017-01-01T10:24:58.139Z,1888
2017-01-01T10:25:58.543Z,1836
2017-01-01T10:26:58.135Z,1800
2017-01-01T10:27:58.127Z,1844
2017-01-01T10:28:58.123Z,1836
2017-01-01T10:29:58.142Z,1876
2017-01-01T10:30:57.714Z,1964
2017-01-01T10:31:58.518Z,2052
2017-01-01T10:32:57.694Z,2204
2017-01-01T10:33:58.514Z,2124
2017-01-01T10:34:57.682Z,1992
2017-01-01T10:35:57.682Z,1892
2017-01-01T10:36:58.090Z,1836
2017-01-01T10:37:57.678Z,1880
2017-01-01T10:38:57.678Z,1896
2017-01-01T10:39:57.254Z,1924
2017-01-01T10:40:58.074Z,1988
2017-01-01T10:41:58.065Z,2032
2017-01-01T10:42:58.069Z,2104
2017-01-01T10:43:57.685Z,2080
2017-01-01T10:44:57.645Z,2068
2017-01-01T10:45:58.458Z,2064
2017-01-01T10:46:58.449Z,2092
2017-01-01T10:47:58.457Z,2264
2017-01-01T10:48:58.037Z,2364
2017-01-01T10:49:58.025Z,2452
2017-01-01T10:50:58.029Z,2616
2017-01-01T10:51:58.029Z,2756
2017-01-01T10:52:58.430Z,2816
2017-01-01T10:53:57.605Z,2836
2017-01-01T10:54:57.597Z,2748
2017-01-01T10:55:58.009Z,2576
2017-01-01T10:56:57.585Z,2544
2017-01-01T10:57:58.409Z,2540
2017-01-01T10:58:58.409Z,2532
2017-01-01T10:59:58.413Z,2540
2017-01-01T11:00:57.989Z,2592
2017-01-01T11:01:57.989Z,2612
2017-01-01T11:02:57.973Z,2620
2017-01-01T11:03:58.385Z,2640
2017-01-01T11:04:58.385Z,2772
2017-01-01T11:05:57.549Z,2880
2017-01-01T11:06:58.381Z,2872
2017-01-01T11:07:57.965Z,2800
2017-01-01T11:08:58.369Z,2608
2017-01-01T11:09:57.549Z,2468
2017-01-01T11:10:58.356Z,2384
2017-01-01T11:11:57.948Z,2256
2017-01-01T11:12:57.936Z,2132
2017-01-01T11:13:57.936Z,2080
2017-01-01T11:14:58.344Z,2016
2017-01-01T11:15:57.932Z,2016
2017-01-01T11:16:57.928Z,2092
2017-01-01T11:17:58.336Z,2172
2017-01-01T11:18:58.329Z,2188
2017-01-01T11:19:57.913Z,2244
2017-01-01T11:20:57.900Z,2272
2017-01-01T11:21:57.900Z,2284
2017-01-01T11:22:57.488Z,2288
2017-01-01T11:23:58.308Z,2256
2017-01-01T11:24:57.480Z,2136
2017-01-01T11:25:57.480Z,2120
2017-01-01T11:26:57.909Z,2216
2017-01-01T11:27:57.888Z,2280
2017-01-01T11:28:57.880Z,2248
2017-01-01T11:29:57.876Z,2208
2017-01-01T11:30:57.899Z,2160
2017-01-01T11:31:57.864Z,2136
2017-01-01T11:32:57.856Z,2196
2017-01-01T11:33:57.856Z,2316
2017-01-01T11:34:57.855Z,2412
2017-01-01T11:35:58.263Z,2364
2017-01-01T11:36:57.844Z,2368
2017-01-01T11:37:57.852Z,2344
2017-01-01T11:38:57.835Z,2324
2017-01-01T11:39:57.828Z,2320
2017-01-01T11:40:57.835Z,2288
2017-01-01T11:41:57.828Z,2268
2017-01-01T11:42:57.859Z,2280
2017-01-01T11:43:57.823Z,2316
2017-01-01T11:44:58.227Z,2400
2017-01-01T11:45:57.807Z,2428
2017-01-01T11:46:57.803Z,2312
2017-01-01T11:47:58.219Z,2256
2017-01-01T11:48:57.795Z,2180
2017-01-01T11:49:57.799Z,2128
2017-01-01T11:50:57.384Z,2132
2017-01-01T11:51:58.195Z,2176
2017-01-01T11:52:58.195Z,2152
2017-01-01T11:53:57.375Z,2180
2017-01-01T11:54:58.191Z,2184
2017-01-01T11:55:57.775Z,2180
2017-01-01T11:56:57.759Z,2164
2017-01-01T11:57:57.767Z,2216
2017-01-01T11:58:57.347Z,2240
2017-01-01T11:59:58.167Z,2232
2017-01-01T12:00:57.746Z,2152
2017-01-01T12:01:57.335Z,2112
2017-01-01T12:02:57.739Z,2088
2017-01-01T12:03:57.751Z,2036
2017-01-01T12:04:58.143Z,2056
2017-01-01T12:05:57.315Z,2064
2017-01-01T12:06:57.723Z,1980
2017-01-01T12:07:58.138Z,1908
2017-01-01T12:08:58.130Z,1912
2017-01-01T12:09:57.714Z,2000
2017-01-01T12:10:57.299Z,2112
2017-01-01T12:11:58.139Z,2180
2017-01-01T12:12:57.702Z,2180
2017-01-01T12:13:58.111Z,2088
2017-01-01T12:14:57.278Z,2088
2017-01-01T12:15:58.106Z,2084
2017-01-01T12:16:57.691Z,2004
2017-01-01T12:17:58.099Z,1904
2017-01-01T12:18:57.275Z,1864
2017-01-01T12:19:57.674Z,1924
2017-01-01T12:20:58.091Z,1988
2017-01-01T12:21:57.678Z,2016
2017-01-01T12:22:58.079Z,2020
2017-01-01T12:24:58.075Z,1960
2017-01-01T12:25:57.667Z,1912
2017-01-01T12:26:57.659Z,1852
2017-01-01T12:27:57.651Z,1780
2017-01-01T12:28:57.235Z,1716
2017-01-01T12:29:57.639Z,1716
2017-01-01T12:30:58.051Z,1708
2017-01-01T12:31:58.055Z,1672
2017-01-01T12:32:58.048Z,1676
2017-01-01T12:33:58.036Z,1728
2017-01-01T12:34:58.031Z,1760
2017-01-01T12:35:58.034Z,1792
2017-01-01T12:36:58.031Z,1880
2017-01-01T12:37:57.611Z,1872
2017-01-01T12:38:57.613Z,1868
2017-01-01T12:39:57.608Z,1884
2017-01-01T12:40:58.016Z,1932
2017-01-01T12:41:57.192Z,1896
2017-01-01T12:42:57.592Z,1956
2017-01-01T12:43:58.016Z,1912
2017-01-01T12:44:57.172Z,2008
2017-01-01T12:45:57.580Z,1940
2017-01-01T12:46:57.580Z,1940
2017-01-01T12:47:57.579Z,1928
2017-01-01T12:48:57.568Z,1896
2017-01-01T12:49:57.156Z,1844
2017-01-01T12:50:57.569Z,1820
2017-01-01T12:51:57.152Z,1864
2017-01-01T12:52:57.556Z,1944
2017-01-01T12:53:57.972Z,1944
2017-01-01T12:54:57.969Z,1868
2017-01-01T12:55:57.997Z,1876
2017-01-01T12:56:57.545Z,1912
2017-01-01T12:57:56.717Z,1912
2017-01-01T12:58:57.946Z,1852
2017-01-01T12:59:57.537Z,1860
2017-01-01T13:00:57.937Z,1780
2017-01-01T13:01:57.118Z,1760
2017-01-01T13:02:57.514Z,1772
2017-01-01T13:03:57.922Z,1792
2017-01-01T13:04:57.514Z,1724
2017-01-01T13:05:57.926Z,1672
2017-01-01T13:06:57.915Z,1648
2017-01-01T13:07:57.511Z,1636
2017-01-01T13:08:57.503Z,1640
2017-01-01T13:09:57.495Z,1624
2017-01-01T13:10:57.907Z,1628
2017-01-01T13:11:57.487Z,1652
2017-01-01T13:12:57.491Z,1704
2017-01-01T13:13:57.479Z,1704
2017-01-01T13:14:57.887Z,1664
2017-01-01T13:15:57.059Z,1632
2017-01-01T13:16:57.884Z,1620
2017-01-01T13:17:57.884Z,1620
2017-01-01T13:18:57.464Z,1620
2017-01-01T13:19:57.456Z,1600
2017-01-01T13:20:57.872Z,1588
2017-01-01T13:21:57.448Z,1576
2017-01-01T13:22:57.852Z,1556
2017-01-01T13:23:57.448Z,1548
2017-01-01T13:24:57.445Z,1536
2017-01-01T13:25:57.849Z,1528
2017-01-01T13:26:57.025Z,1536
2017-01-01T13:27:57.433Z,1532
2017-01-01T13:28:57.845Z,1544
2017-01-01T13:29:57.865Z,1552
2017-01-01T13:30:57.825Z,1588
2017-01-01T13:31:57.413Z,1584
2017-01-01T13:32:57.821Z,1556
2017-01-01T13:33:56.994Z,1556
2017-01-01T13:34:57.814Z,1576
2017-01-01T13:35:57.406Z,1592
2017-01-01T13:36:57.394Z,1584
2017-01-01T13:37:57.402Z,1600
2017-01-01T13:38:57.802Z,1648
2017-01-01T13:39:57.794Z,1696
2017-01-01T13:40:56.970Z,1716
2017-01-01T13:41:57.786Z,1732
2017-01-01T13:42:57.371Z,1696
2017-01-01T13:43:57.375Z,1688
2017-01-01T13:44:57.363Z,1628
2017-01-01T13:45:57.363Z,1600
2017-01-01T13:46:57.363Z,1572
2017-01-01T13:47:57.359Z,1536
2017-01-01T13:48:57.763Z,1524
2017-01-01T13:49:57.767Z,1516
2017-01-01T13:50:57.347Z,1520
2017-01-01T13:51:56.931Z,1504
2017-01-01T13:52:57.751Z,1484
2017-01-01T13:53:57.336Z,1476
2017-01-01T13:54:57.327Z,1472
2017-01-01T13:55:57.332Z,1452
2017-01-01T13:56:57.740Z,1432
2017-01-01T13:57:57.723Z,1420
2017-01-01T13:58:57.324Z,1412
2017-01-01T13:59:57.722Z,1404
2017-01-01T14:00:57.328Z,1404
2017-01-01T14:01:57.716Z,1396
2017-01-01T14:02:57.301Z,1396
2017-01-01T14:03:57.296Z,1388
2017-01-01T14:04:57.293Z,1384
2017-01-01T14:05:57.701Z,1380